sensor_id;sensor_type;location;lat;lon;timestamp;P1;durP1;ratioP1;P2;durP2;ratioP2
18544;SDS011;9402;51.460;7.276;2022-08-19T00:01:58;192.17;;;177.00;;
18544;SDS011;9402;51.460;7.276;2022-08-19T00:04:02;183.50;;;169.43;;
18544;SDS011;9402;51.460;7.276;2022-08-19T00:06:06;167.63;;;153.87;;
18544;SDS011;9402;51.460;7.276;2022-08-19T00:08:11;183.03;;;168.90;;
18544;SDS011;9402;51.460;7.276;2022-08-19T00:10:13;196.97;;;182.10;;
18544;SDS011;9402;51.460;7.276;2022-08-19T00:12:18;198.07;;;182.03;;
18544;SDS011;9402;51.460;7.276;2022-08-19T00:14:21;207.23;;;191.03;;
18544;SDS011;9402;51.460;7.276;2022-08-19T00:16:24;208.17;;;191.83;;
18544;SDS011;9402;51.460;7.276;2022-08-19T00:18:27;182.93;;;168.07;;
18544;SDS011;9402;51.460;7.276;2022-08-19T00:20:29;200.73;;;184.83;;
18544;SDS011;9402;51.460;7.276;2022-08-19T00:22:32;229.20;;;211.63;;
18544;SDS011;9402;51.460;7.276;2022-08-19T00:24:35;206.93;;;190.57;;
18544;SDS011;9402;51.460;7.276;2022-08-19T00:26:38;192.33;;;177.27;;
18544;SDS011;9402;51.460;7.276;2022-08-19T00:28:41;217.47;;;200.60;;
18544;SDS011;9402;51.460;7.276;2022-08-19T00:30:44;201.20;;;184.97;;
18544;SDS011;9402;51.460;7.276;2022-08-19T00:32:46;249.23;;;229.83;;
18544;SDS011;9402;51.460;7.276;2022-08-19T00:34:49;212.17;;;195.80;;
18544;SDS011;9402;51.460;7.276;2022-08-19T00:36:53;205.00;;;188.33;;
18544;SDS011;9402;51.460;7.276;2022-08-19T00:38:56;234.60;;;215.87;;
18544;SDS011;9402;51.460;7.276;2022-08-19T00:40:59;217.33;;;200.33;;
18544;SDS011;9402;51.460;7.276;2022-08-19T00:43:07;231.67;;;212.80;;
18544;SDS011;9402;51.460;7.276;2022-08-19T00:45:13;250.57;;;231.13;;
18544;SDS011;9402;51.460;7.276;2022-08-19T00:47:17;227.63;;;209.67;;
18544;SDS011;9402;51.460;7.276;2022-08-19T00:49:20;237.27;;;218.27;;
18544;SDS011;9402;51.460;7.276;2022-08-19T00:51:26;213.93;;;197.03;;
18544;SDS011;9402;51.460;7.276;2022-08-19T00:53:29;208.97;;;192.47;;
18544;SDS011;9402;51.460;7.276;2022-08-19T00:55:34;232.73;;;214.43;;
18544;SDS011;9402;51.460;7.276;2022-08-19T00:57:38;228.53;;;210.30;;
18544;SDS011;9402;51.460;7.276;2022-08-19T00:59:45;228.80;;;211.20;;
18544;SDS011;9402;51.460;7.276;2022-08-19T01:01:48;214.07;;;197.03;;
18544;SDS011;9402;51.460;7.276;2022-08-19T01:03:51;239.97;;;221.20;;
18544;SDS011;9402;51.460;7.276;2022-08-19T01:05:53;242.37;;;223.67;;
18544;SDS011;9402;51.460;7.276;2022-08-19T01:07:56;241.37;;;222.87;;
18544;SDS011;9402;51.460;7.276;2022-08-19T01:10:00;212.63;;;196.37;;
18544;SDS011;9402;51.460;7.276;2022-08-19T01:12:03;302.47;;;278.97;;
18544;SDS011;9402;51.460;7.276;2022-08-19T01:14:07;207.43;;;190.97;;
18544;SDS011;9402;51.460;7.276;2022-08-19T01:16:10;227.60;;;209.40;;
18544;SDS011;9402;51.460;7.276;2022-08-19T01:18:13;241.97;;;223.73;;
18544;SDS011;9402;51.460;7.276;2022-08-19T01:20:19;242.07;;;222.07;;
18544;SDS011;9402;51.460;7.276;2022-08-19T01:22:28;213.20;;;195.97;;
18544;SDS011;9402;51.460;7.276;2022-08-19T01:24:32;196.17;;;180.53;;
18544;SDS011;9402;51.460;7.276;2022-08-19T01:26:37;248.00;;;228.67;;
18544;SDS011;9402;51.460;7.276;2022-08-19T01:28:42;245.93;;;226.80;;
18544;SDS011;9402;51.460;7.276;2022-08-19T01:30:45;223.83;;;205.67;;
18544;SDS011;9402;51.460;7.276;2022-08-19T01:32:47;217.60;;;200.07;;
18544;SDS011;9402;51.460;7.276;2022-08-19T01:34:50;264.73;;;243.80;;
18544;SDS011;9402;51.460;7.276;2022-08-19T01:36:52;236.33;;;217.70;;
18544;SDS011;9402;51.460;7.276;2022-08-19T01:38:56;208.87;;;192.50;;
18544;SDS011;9402;51.460;7.276;2022-08-19T01:40:59;217.80;;;200.57;;
18544;SDS011;9402;51.460;7.276;2022-08-19T01:43:02;213.30;;;196.63;;
18544;SDS011;9402;51.460;7.276;2022-08-19T01:45:06;258.30;;;238.47;;
18544;SDS011;9402;51.460;7.276;2022-08-19T01:47:09;205.77;;;189.73;;
18544;SDS011;9402;51.460;7.276;2022-08-19T01:49:11;197.87;;;182.27;;
18544;SDS011;9402;51.460;7.276;2022-08-19T01:51:14;232.13;;;213.80;;
18544;SDS011;9402;51.460;7.276;2022-08-19T01:53:16;222.83;;;205.30;;
18544;SDS011;9402;51.460;7.276;2022-08-19T01:55:20;220.73;;;203.73;;
18544;SDS011;9402;51.460;7.276;2022-08-19T01:57:23;224.17;;;207.07;;
18544;SDS011;9402;51.460;7.276;2022-08-19T01:59:26;234.60;;;215.53;;
18544;SDS011;9402;51.460;7.276;2022-08-19T02:01:28;223.93;;;206.10;;
18544;SDS011;9402;51.460;7.276;2022-08-19T02:03:32;216.67;;;199.40;;
18544;SDS011;9402;51.460;7.276;2022-08-19T02:05:35;256.73;;;236.23;;
18544;SDS011;9402;51.460;7.276;2022-08-19T02:07:38;213.07;;;195.93;;
18544;SDS011;9402;51.460;7.276;2022-08-19T02:09:41;219.97;;;202.80;;
18544;SDS011;9402;51.460;7.276;2022-08-19T02:11:45;251.33;;;231.90;;
18544;SDS011;9402;51.460;7.276;2022-08-19T02:13:47;238.00;;;218.57;;
18544;SDS011;9402;51.460;7.276;2022-08-19T02:15:50;208.53;;;192.50;;
18544;SDS011;9402;51.460;7.276;2022-08-19T02:17:52;218.90;;;201.80;;
18544;SDS011;9402;51.460;7.276;2022-08-19T02:19:55;220.77;;;203.23;;
18544;SDS011;9402;51.460;7.276;2022-08-19T02:21:57;192.10;;;176.83;;
18544;SDS011;9402;51.460;7.276;2022-08-19T02:24:00;230.67;;;212.57;;
18544;SDS011;9402;51.460;7.276;2022-08-19T02:26:02;213.13;;;195.70;;
18544;SDS011;9402;51.460;7.276;2022-08-19T02:28:06;195.40;;;179.90;;
18544;SDS011;9402;51.460;7.276;2022-08-19T02:30:11;226.53;;;208.20;;
18544;SDS011;9402;51.460;7.276;2022-08-19T02:32:15;217.50;;;200.27;;
18544;SDS011;9402;51.460;7.276;2022-08-19T02:34:18;184.60;;;170.00;;
18544;SDS011;9402;51.460;7.276;2022-08-19T02:36:20;211.97;;;194.87;;
18544;SDS011;9402;51.460;7.276;2022-08-19T02:38:23;200.03;;;184.37;;
18544;SDS011;9402;51.460;7.276;2022-08-19T02:40:27;223.57;;;205.73;;
18544;SDS011;9402;51.460;7.276;2022-08-19T02:42:30;212.40;;;195.40;;
18544;SDS011;9402;51.460;7.276;2022-08-19T02:44:33;205.73;;;189.57;;
18544;SDS011;9402;51.460;7.276;2022-08-19T02:46:36;212.20;;;195.67;;
18544;SDS011;9402;51.460;7.276;2022-08-19T02:48:38;197.20;;;181.93;;
18544;SDS011;9402;51.460;7.276;2022-08-19T02:50:41;215.50;;;198.07;;
18544;SDS011;9402;51.460;7.276;2022-08-19T02:52:43;198.10;;;182.00;;
18544;SDS011;9402;51.460;7.276;2022-08-19T02:54:46;229.10;;;210.67;;
18544;SDS011;9402;51.460;7.276;2022-08-19T02:56:48;214.90;;;197.90;;
18544;SDS011;9402;51.460;7.276;2022-08-19T02:58:51;204.27;;;188.70;;
18544;SDS011;9402;51.460;7.276;2022-08-19T03:00:55;187.53;;;172.73;;
18544;SDS011;9402;51.460;7.276;2022-08-19T03:02:58;183.57;;;168.77;;
18544;SDS011;9402;51.460;7.276;2022-08-19T03:05:02;204.23;;;188.17;;
18544;SDS011;9402;51.460;7.276;2022-08-19T03:07:04;190.47;;;175.90;;
18544;SDS011;9402;51.460;7.276;2022-08-19T03:09:07;184.47;;;170.10;;
18544;SDS011;9402;51.460;7.276;2022-08-19T03:11:12;162.33;;;149.53;;
18544;SDS011;9402;51.460;7.276;2022-08-19T03:13:16;197.87;;;182.50;;
18544;SDS011;9402;51.460;7.276;2022-08-19T03:15:19;170.50;;;156.70;;
18544;SDS011;9402;51.460;7.276;2022-08-19T03:17:22;181.83;;;167.60;;
18544;SDS011;9402;51.460;7.276;2022-08-19T03:19:25;161.37;;;148.30;;
18544;SDS011;9402;51.460;7.276;2022-08-19T03:21:28;160.57;;;147.90;;
18544;SDS011;9402;51.460;7.276;2022-08-19T03:23:31;168.20;;;155.03;;
18544;SDS011;9402;51.460;7.276;2022-08-19T03:25:36;174.87;;;161.00;;
18544;SDS011;9402;51.460;7.276;2022-08-19T03:27:40;185.60;;;170.93;;
18544;SDS011;9402;51.460;7.276;2022-08-19T03:29:42;209.83;;;193.33;;
18544;SDS011;9402;51.460;7.276;2022-08-19T03:31:45;159.77;;;147.27;;
18544;SDS011;9402;51.460;7.276;2022-08-19T03:33:49;183.23;;;169.20;;
18544;SDS011;9402;51.460;7.276;2022-08-19T03:35:59;178.50;;;164.40;;
18544;SDS011;9402;51.460;7.276;2022-08-19T03:38:03;166.93;;;154.10;;
18544;SDS011;9402;51.460;7.276;2022-08-19T03:40:06;183.20;;;168.63;;
18544;SDS011;9402;51.460;7.276;2022-08-19T03:42:09;174.73;;;161.43;;
18544;SDS011;9402;51.460;7.276;2022-08-19T03:44:12;196.90;;;181.53;;
18544;SDS011;9402;51.460;7.276;2022-08-19T03:46:16;180.43;;;166.60;;
18544;SDS011;9402;51.460;7.276;2022-08-19T03:48:20;174.57;;;160.73;;
18544;SDS011;9402;51.460;7.276;2022-08-19T03:50:24;191.30;;;176.33;;
18544;SDS011;9402;51.460;7.276;2022-08-19T03:52:26;174.37;;;160.07;;
18544;SDS011;9402;51.460;7.276;2022-08-19T03:54:28;172.73;;;158.93;;
18544;SDS011;9402;51.460;7.276;2022-08-19T03:56:32;177.07;;;162.50;;
18544;SDS011;9402;51.460;7.276;2022-08-19T03:58:35;174.17;;;160.23;;
18544;SDS011;9402;51.460;7.276;2022-08-19T04:00:41;170.70;;;157.10;;
18544;SDS011;9402;51.460;7.276;2022-08-19T04:02:43;152.80;;;140.40;;
18544;SDS011;9402;51.460;7.276;2022-08-19T04:04:46;164.20;;;150.83;;
18544;SDS011;9402;51.460;7.276;2022-08-19T04:06:50;153.70;;;142.10;;
18544;SDS011;9402;51.460;7.276;2022-08-19T04:08:53;159.30;;;146.77;;
18544;SDS011;9402;51.460;7.276;2022-08-19T04:10:56;144.70;;;132.90;;
18544;SDS011;9402;51.460;7.276;2022-08-19T04:12:58;169.13;;;155.87;;
18544;SDS011;9402;51.460;7.276;2022-08-19T04:15:00;167.20;;;153.57;;
18544;SDS011;9402;51.460;7.276;2022-08-19T04:17:04;157.93;;;145.60;;
18544;SDS011;9402;51.460;7.276;2022-08-19T04:19:06;150.37;;;138.57;;
18544;SDS011;9402;51.460;7.276;2022-08-19T04:21:14;180.43;;;165.93;;
18544;SDS011;9402;51.460;7.276;2022-08-19T04:23:19;141.57;;;130.33;;
18544;SDS011;9402;51.460;7.276;2022-08-19T04:25:22;160.67;;;148.03;;
18544;SDS011;9402;51.460;7.276;2022-08-19T04:27:25;173.77;;;160.47;;
18544;SDS011;9402;51.460;7.276;2022-08-19T04:29:27;167.90;;;154.93;;
18544;SDS011;9402;51.460;7.276;2022-08-19T04:31:30;147.67;;;136.27;;
18544;SDS011;9402;51.460;7.276;2022-08-19T04:33:35;149.30;;;137.77;;
18544;SDS011;9402;51.460;7.276;2022-08-19T04:35:38;157.43;;;144.03;;
18544;SDS011;9402;51.460;7.276;2022-08-19T04:37:41;165.10;;;152.20;;
18544;SDS011;9402;51.460;7.276;2022-08-19T04:39:45;137.40;;;126.70;;
18544;SDS011;9402;51.460;7.276;2022-08-19T04:42:05;137.60;;;126.73;;
18544;SDS011;9402;51.460;7.276;2022-08-19T04:44:25;136.20;;;125.53;;
18544;SDS011;9402;51.460;7.276;2022-08-19T04:46:30;149.43;;;138.13;;
18544;SDS011;9402;51.460;7.276;2022-08-19T04:48:33;136.77;;;125.93;;
18544;SDS011;9402;51.460;7.276;2022-08-19T04:50:35;139.37;;;128.57;;
18544;SDS011;9402;51.460;7.276;2022-08-19T04:52:40;128.97;;;118.50;;
18544;SDS011;9402;51.460;7.276;2022-08-19T04:54:43;142.27;;;130.80;;
18544;SDS011;9402;51.460;7.276;2022-08-19T04:56:46;122.27;;;112.77;;
18544;SDS011;9402;51.460;7.276;2022-08-19T04:58:50;121.07;;;111.87;;
18544;SDS011;9402;51.460;7.276;2022-08-19T05:00:52;117.83;;;108.70;;
18544;SDS011;9402;51.460;7.276;2022-08-19T05:02:55;112.67;;;103.33;;
18544;SDS011;9402;51.460;7.276;2022-08-19T05:04:58;122.43;;;112.70;;
18544;SDS011;9402;51.460;7.276;2022-08-19T05:07:01;109.73;;;99.83;;
18544;SDS011;9402;51.460;7.276;2022-08-19T05:09:03;115.20;;;106.07;;
18544;SDS011;9402;51.460;7.276;2022-08-19T05:11:07;126.27;;;116.60;;
18544;SDS011;9402;51.460;7.276;2022-08-19T05:13:13;116.37;;;107.40;;
18544;SDS011;9402;51.460;7.276;2022-08-19T05:15:16;122.20;;;112.83;;
18544;SDS011;9402;51.460;7.276;2022-08-19T05:17:18;115.60;;;106.30;;
18544;SDS011;9402;51.460;7.276;2022-08-19T05:19:21;115.47;;;106.27;;
18544;SDS011;9402;51.460;7.276;2022-08-19T05:21:41;106.83;;;97.77;;
18544;SDS011;9402;51.460;7.276;2022-08-19T05:24:02;117.40;;;108.60;;
18544;SDS011;9402;51.460;7.276;2022-08-19T05:26:08;113.60;;;104.73;;
18544;SDS011;9402;51.460;7.276;2022-08-19T05:28:12;108.63;;;100.27;;
18544;SDS011;9402;51.460;7.276;2022-08-19T05:30:15;106.17;;;97.83;;
18544;SDS011;9402;51.460;7.276;2022-08-19T05:32:18;100.00;;;91.60;;
18544;SDS011;9402;51.460;7.276;2022-08-19T05:34:22;107.73;;;99.43;;
18544;SDS011;9402;51.460;7.276;2022-08-19T05:36:26;107.40;;;98.70;;
18544;SDS011;9402;51.460;7.276;2022-08-19T05:38:29;106.10;;;97.73;;
18544;SDS011;9402;51.460;7.276;2022-08-19T05:40:31;110.27;;;101.50;;
18544;SDS011;9402;51.460;7.276;2022-08-19T05:42:36;105.23;;;96.60;;
18544;SDS011;9402;51.460;7.276;2022-08-19T05:44:41;94.63;;;87.20;;
18544;SDS011;9402;51.460;7.276;2022-08-19T05:46:44;94.43;;;86.83;;
18544;SDS011;9402;51.460;7.276;2022-08-19T05:48:47;102.47;;;93.70;;
18544;SDS011;9402;51.460;7.276;2022-08-19T05:50:50;110.67;;;101.87;;
18544;SDS011;9402;51.460;7.276;2022-08-19T05:52:52;115.07;;;106.00;;
18544;SDS011;9402;51.460;7.276;2022-08-19T05:54:55;98.23;;;90.40;;
18544;SDS011;9402;51.460;7.276;2022-08-19T05:56:57;104.60;;;96.20;;
18544;SDS011;9402;51.460;7.276;2022-08-19T05:59:01;118.23;;;109.10;;
18544;SDS011;9402;51.460;7.276;2022-08-19T06:01:10;114.63;;;105.63;;
18544;SDS011;9402;51.460;7.276;2022-08-19T06:03:14;119.73;;;110.43;;
18544;SDS011;9402;51.460;7.276;2022-08-19T06:05:16;145.23;;;134.40;;
18544;SDS011;9402;51.460;7.276;2022-08-19T06:07:20;147.37;;;136.27;;
18544;SDS011;9402;51.460;7.276;2022-08-19T06:09:22;126.00;;;116.00;;
18544;SDS011;9402;51.460;7.276;2022-08-19T06:11:30;123.87;;;114.50;;
18544;SDS011;9402;51.460;7.276;2022-08-19T06:13:34;143.20;;;131.77;;
18544;SDS011;9402;51.460;7.276;2022-08-19T06:15:36;142.53;;;131.27;;
18544;SDS011;9402;51.460;7.276;2022-08-19T06:17:40;163.27;;;150.30;;
18544;SDS011;9402;51.460;7.276;2022-08-19T06:19:44;169.67;;;156.43;;
18544;SDS011;9402;51.460;7.276;2022-08-19T06:21:47;213.43;;;197.07;;
18544;SDS011;9402;51.460;7.276;2022-08-19T06:23:50;165.93;;;152.93;;
18544;SDS011;9402;51.460;7.276;2022-08-19T06:25:54;152.90;;;140.60;;
18544;SDS011;9402;51.460;7.276;2022-08-19T06:27:56;196.33;;;181.20;;
18544;SDS011;9402;51.460;7.276;2022-08-19T06:29:59;159.37;;;146.63;;
18544;SDS011;9402;51.460;7.276;2022-08-19T06:32:02;169.60;;;156.13;;
18544;SDS011;9402;51.460;7.276;2022-08-19T06:34:06;205.73;;;189.73;;
18544;SDS011;9402;51.460;7.276;2022-08-19T06:36:15;238.23;;;218.67;;
18544;SDS011;9402;51.460;7.276;2022-08-19T06:38:18;212.73;;;195.67;;
18544;SDS011;9402;51.460;7.276;2022-08-19T06:40:23;201.90;;;185.90;;
18544;SDS011;9402;51.460;7.276;2022-08-19T06:42:27;194.13;;;178.67;;
18544;SDS011;9402;51.460;7.276;2022-08-19T06:44:31;223.80;;;205.63;;
18544;SDS011;9402;51.460;7.276;2022-08-19T06:46:36;226.50;;;207.63;;
18544;SDS011;9402;51.460;7.276;2022-08-19T06:48:39;200.63;;;184.53;;
18544;SDS011;9402;51.460;7.276;2022-08-19T06:50:42;244.60;;;224.23;;
18544;SDS011;9402;51.460;7.276;2022-08-19T06:52:45;196.47;;;180.37;;
18544;SDS011;9402;51.460;7.276;2022-08-19T06:54:47;261.07;;;240.50;;
18544;SDS011;9402;51.460;7.276;2022-08-19T06:56:50;283.60;;;260.20;;
18544;SDS011;9402;51.460;7.276;2022-08-19T06:58:52;224.73;;;206.43;;
18544;SDS011;9402;51.460;7.276;2022-08-19T07:00:55;259.37;;;238.73;;
18544;SDS011;9402;51.460;7.276;2022-08-19T07:02:57;201.73;;;184.97;;
18544;SDS011;9402;51.460;7.276;2022-08-19T07:05:00;249.07;;;228.80;;
18544;SDS011;9402;51.460;7.276;2022-08-19T07:07:06;211.30;;;194.07;;
18544;SDS011;9402;51.460;7.276;2022-08-19T07:09:10;207.73;;;191.40;;
18544;SDS011;9402;51.460;7.276;2022-08-19T07:11:15;183.23;;;168.07;;
18544;SDS011;9402;51.460;7.276;2022-08-19T07:13:19;192.27;;;176.80;;
18544;SDS011;9402;51.460;7.276;2022-08-19T07:15:22;213.47;;;195.70;;
18544;SDS011;9402;51.460;7.276;2022-08-19T07:17:25;171.43;;;156.97;;
18544;SDS011;9402;51.460;7.276;2022-08-19T07:19:27;166.47;;;152.70;;
18544;SDS011;9402;51.460;7.276;2022-08-19T07:21:31;151.93;;;139.00;;
18544;SDS011;9402;51.460;7.276;2022-08-19T07:23:35;162.77;;;148.23;;
18544;SDS011;9402;51.460;7.276;2022-08-19T07:25:38;168.70;;;154.60;;
18544;SDS011;9402;51.460;7.276;2022-08-19T07:27:40;149.60;;;137.47;;
18544;SDS011;9402;51.460;7.276;2022-08-19T07:29:44;129.57;;;119.10;;
18544;SDS011;9402;51.460;7.276;2022-08-19T07:31:46;158.93;;;145.57;;
18544;SDS011;9402;51.460;7.276;2022-08-19T07:33:50;147.87;;;135.93;;
18544;SDS011;9402;51.460;7.276;2022-08-19T07:35:55;141.30;;;129.43;;
18544;SDS011;9402;51.460;7.276;2022-08-19T07:37:57;164.00;;;150.83;;
18544;SDS011;9402;51.460;7.276;2022-08-19T07:40:05;181.50;;;166.60;;
18544;SDS011;9402;51.460;7.276;2022-08-19T07:42:09;139.40;;;128.17;;
18544;SDS011;9402;51.460;7.276;2022-08-19T07:44:14;138.40;;;126.80;;
18544;SDS011;9402;51.460;7.276;2022-08-19T07:46:20;125.87;;;115.47;;
18544;SDS011;9402;51.460;7.276;2022-08-19T07:48:24;124.13;;;114.13;;
18544;SDS011;9402;51.460;7.276;2022-08-19T07:50:31;142.10;;;129.73;;
18544;SDS011;9402;51.460;7.276;2022-08-19T07:52:40;116.53;;;106.77;;
18544;SDS011;9402;51.460;7.276;2022-08-19T07:54:45;116.73;;;107.23;;
18544;SDS011;9402;51.460;7.276;2022-08-19T07:56:50;130.27;;;119.47;;
18544;SDS011;9402;51.460;7.276;2022-08-19T07:58:52;131.77;;;121.03;;
18544;SDS011;9402;51.460;7.276;2022-08-19T08:00:55;143.63;;;131.97;;
18544;SDS011;9402;51.460;7.276;2022-08-19T08:02:58;131.87;;;121.63;;
18544;SDS011;9402;51.460;7.276;2022-08-19T08:05:05;154.80;;;142.10;;
18544;SDS011;9402;51.460;7.276;2022-08-19T08:07:26;134.60;;;123.73;;
18544;SDS011;9402;51.460;7.276;2022-08-19T08:09:53;107.37;;;98.00;;
18544;SDS011;9402;51.460;7.276;2022-08-19T08:11:59;118.40;;;108.87;;
18544;SDS011;9402;51.460;7.276;2022-08-19T08:14:03;115.80;;;106.23;;
18544;SDS011;9402;51.460;7.276;2022-08-19T08:16:06;123.43;;;113.33;;
18544;SDS011;9402;51.460;7.276;2022-08-19T08:18:08;129.67;;;119.33;;
18544;SDS011;9402;51.460;7.276;2022-08-19T08:20:10;160.97;;;148.27;;
18544;SDS011;9402;51.460;7.276;2022-08-19T08:22:16;116.87;;;107.93;;
18544;SDS011;9402;51.460;7.276;2022-08-19T08:24:38;154.67;;;142.57;;
18544;SDS011;9402;51.460;7.276;2022-08-19T08:26:41;133.60;;;123.07;;
18544;SDS011;9402;51.460;7.276;2022-08-19T08:28:50;117.97;;;108.93;;
18544;SDS011;9402;51.460;7.276;2022-08-19T08:30:56;100.57;;;92.30;;
18544;SDS011;9402;51.460;7.276;2022-08-19T08:33:01;101.80;;;93.90;;
18544;SDS011;9402;51.460;7.276;2022-08-19T08:35:07;113.90;;;105.00;;
18544;SDS011;9402;51.460;7.276;2022-08-19T08:37:18;122.03;;;112.03;;
18544;SDS011;9402;51.460;7.276;2022-08-19T08:39:29;112.67;;;103.67;;
18544;SDS011;9402;51.460;7.276;2022-08-19T08:41:37;110.97;;;101.43;;
18544;SDS011;9402;51.460;7.276;2022-08-19T08:43:49;112.20;;;103.37;;
18544;SDS011;9402;51.460;7.276;2022-08-19T08:45:56;110.60;;;101.23;;
18544;SDS011;9402;51.460;7.276;2022-08-19T08:48:13;118.47;;;108.53;;
18544;SDS011;9402;51.460;7.276;2022-08-19T08:50:25;120.37;;;110.47;;
18544;SDS011;9402;51.460;7.276;2022-08-19T08:52:34;111.67;;;102.27;;
18544;SDS011;9402;51.460;7.276;2022-08-19T08:54:47;114.03;;;105.00;;
18544;SDS011;9402;51.460;7.276;2022-08-19T08:56:53;123.10;;;112.77;;
18544;SDS011;9402;51.460;7.276;2022-08-19T08:59:00;122.27;;;112.57;;
18544;SDS011;9402;51.460;7.276;2022-08-19T09:01:16;127.10;;;116.30;;
18544;SDS011;9402;51.460;7.276;2022-08-19T09:03:24;134.67;;;123.40;;
18544;SDS011;9402;51.460;7.276;2022-08-19T09:05:30;119.87;;;109.83;;
18544;SDS011;9402;51.460;7.276;2022-08-19T09:07:39;113.80;;;103.77;;
18544;SDS011;9402;51.460;7.276;2022-08-19T09:09:49;115.90;;;106.20;;
18544;SDS011;9402;51.460;7.276;2022-08-19T09:11:55;127.30;;;117.23;;
18544;SDS011;9402;51.460;7.276;2022-08-19T09:14:05;126.50;;;116.13;;
18544;SDS011;9402;51.460;7.276;2022-08-19T09:16:15;117.40;;;107.43;;
18544;SDS011;9402;51.460;7.276;2022-08-19T09:18:20;117.77;;;108.47;;
18544;SDS011;9402;51.460;7.276;2022-08-19T09:20:23;124.63;;;114.33;;
18544;SDS011;9402;51.460;7.276;2022-08-19T09:22:25;107.67;;;98.70;;
18544;SDS011;9402;51.460;7.276;2022-08-19T09:24:28;120.27;;;110.37;;
18544;SDS011;9402;51.460;7.276;2022-08-19T09:26:31;129.17;;;118.27;;
18544;SDS011;9402;51.460;7.276;2022-08-19T09:28:34;129.17;;;118.17;;
18544;SDS011;9402;51.460;7.276;2022-08-19T09:30:40;118.53;;;107.80;;
18544;SDS011;9402;51.460;7.276;2022-08-19T09:32:43;126.43;;;115.60;;
18544;SDS011;9402;51.460;7.276;2022-08-19T09:34:46;117.77;;;107.43;;
18544;SDS011;9402;51.460;7.276;2022-08-19T09:36:49;108.83;;;98.93;;
18544;SDS011;9402;51.460;7.276;2022-08-19T09:38:55;119.17;;;108.77;;
18544;SDS011;9402;51.460;7.276;2022-08-19T09:41:01;111.77;;;102.40;;
18544;SDS011;9402;51.460;7.276;2022-08-19T09:43:05;121.00;;;110.57;;
18544;SDS011;9402;51.460;7.276;2022-08-19T09:45:10;117.93;;;107.57;;
18544;SDS011;9402;51.460;7.276;2022-08-19T09:47:14;118.03;;;108.60;;
18544;SDS011;9402;51.460;7.276;2022-08-19T09:49:17;117.77;;;107.07;;
18544;SDS011;9402;51.460;7.276;2022-08-19T09:51:22;109.03;;;99.77;;
18544;SDS011;9402;51.460;7.276;2022-08-19T09:53:26;111.67;;;102.53;;
18544;SDS011;9402;51.460;7.276;2022-08-19T09:55:28;114.00;;;105.00;;
18544;SDS011;9402;51.460;7.276;2022-08-19T09:57:31;105.93;;;97.63;;
18544;SDS011;9402;51.460;7.276;2022-08-19T09:59:33;108.53;;;99.33;;
18544;SDS011;9402;51.460;7.276;2022-08-19T10:01:36;109.13;;;99.67;;
18544;SDS011;9402;51.460;7.276;2022-08-19T10:03:40;113.40;;;103.53;;
18544;SDS011;9402;51.460;7.276;2022-08-19T10:05:42;121.37;;;110.60;;
18544;SDS011;9402;51.460;7.276;2022-08-19T10:07:50;123.00;;;111.80;;
18544;SDS011;9402;51.460;7.276;2022-08-19T10:09:52;110.63;;;101.53;;
18544;SDS011;9402;51.460;7.276;2022-08-19T10:11:54;94.17;;;85.93;;
18544;SDS011;9402;51.460;7.276;2022-08-19T10:13:57;101.67;;;92.73;;
18544;SDS011;9402;51.460;7.276;2022-08-19T10:16:02;103.33;;;94.73;;
18544;SDS011;9402;51.460;7.276;2022-08-19T10:18:07;108.90;;;100.37;;
18544;SDS011;9402;51.460;7.276;2022-08-19T10:20:11;87.40;;;79.83;;
18544;SDS011;9402;51.460;7.276;2022-08-19T10:22:14;102.27;;;93.67;;
18544;SDS011;9402;51.460;7.276;2022-08-19T10:24:16;102.33;;;94.63;;
18544;SDS011;9402;51.460;7.276;2022-08-19T10:26:21;108.97;;;99.90;;
18544;SDS011;9402;51.460;7.276;2022-08-19T10:28:24;100.33;;;92.70;;
18544;SDS011;9402;51.460;7.276;2022-08-19T10:30:27;82.83;;;76.03;;
18544;SDS011;9402;51.460;7.276;2022-08-19T10:32:29;92.93;;;85.77;;
18544;SDS011;9402;51.460;7.276;2022-08-19T10:34:31;99.67;;;91.77;;
18544;SDS011;9402;51.460;7.276;2022-08-19T10:36:36;94.17;;;87.00;;
18544;SDS011;9402;51.460;7.276;2022-08-19T10:38:38;107.93;;;99.50;;
18544;SDS011;9402;51.460;7.276;2022-08-19T10:40:41;97.63;;;89.57;;
18544;SDS011;9402;51.460;7.276;2022-08-19T10:42:43;95.00;;;87.67;;
18544;SDS011;9402;51.460;7.276;2022-08-19T10:44:46;93.43;;;86.40;;
18544;SDS011;9402;51.460;7.276;2022-08-19T10:46:48;100.23;;;92.60;;
18544;SDS011;9402;51.460;7.276;2022-08-19T10:48:52;96.27;;;87.83;;
18544;SDS011;9402;51.460;7.276;2022-08-19T10:50:56;97.63;;;90.20;;
18544;SDS011;9402;51.460;7.276;2022-08-19T10:53:18;86.53;;;79.53;;
18544;SDS011;9402;51.460;7.276;2022-08-19T10:55:25;90.53;;;83.27;;
18544;SDS011;9402;51.460;7.276;2022-08-19T10:57:45;93.67;;;86.33;;
18544;SDS011;9402;51.460;7.276;2022-08-19T10:59:47;93.73;;;86.43;;
18544;SDS011;9402;51.460;7.276;2022-08-19T11:01:50;65.20;;;60.03;;
18544;SDS011;9402;51.460;7.276;2022-08-19T11:03:53;71.93;;;66.33;;
18544;SDS011;9402;51.460;7.276;2022-08-19T11:05:57;72.43;;;66.67;;
18544;SDS011;9402;51.460;7.276;2022-08-19T11:08:00;71.63;;;65.53;;
18544;SDS011;9402;51.460;7.276;2022-08-19T11:10:04;97.77;;;90.00;;
18544;SDS011;9402;51.460;7.276;2022-08-19T11:12:08;93.83;;;86.83;;
18544;SDS011;9402;51.460;7.276;2022-08-19T11:14:14;93.80;;;86.70;;
18544;SDS011;9402;51.460;7.276;2022-08-19T11:16:19;88.03;;;81.50;;
18544;SDS011;9402;51.460;7.276;2022-08-19T11:18:23;92.53;;;85.33;;
18544;SDS011;9402;51.460;7.276;2022-08-19T11:20:26;97.33;;;90.13;;
18544;SDS011;9402;51.460;7.276;2022-08-19T11:22:28;97.03;;;89.73;;
18544;SDS011;9402;51.460;7.276;2022-08-19T11:24:30;76.57;;;70.67;;
18544;SDS011;9402;51.460;7.276;2022-08-19T11:26:35;73.77;;;68.17;;
18544;SDS011;9402;51.460;7.276;2022-08-19T11:28:38;67.20;;;61.67;;
18544;SDS011;9402;51.460;7.276;2022-08-19T11:30:41;68.20;;;62.60;;
18544;SDS011;9402;51.460;7.276;2022-08-19T11:32:43;62.63;;;57.43;;
18544;SDS011;9402;51.460;7.276;2022-08-19T11:34:46;75.53;;;68.80;;
18544;SDS011;9402;51.460;7.276;2022-08-19T11:36:49;75.50;;;69.40;;
18544;SDS011;9402;51.460;7.276;2022-08-19T11:38:53;71.93;;;66.07;;
18544;SDS011;9402;51.460;7.276;2022-08-19T11:40:56;74.27;;;67.77;;
18544;SDS011;9402;51.460;7.276;2022-08-19T11:43:00;73.57;;;66.97;;
18544;SDS011;9402;51.460;7.276;2022-08-19T11:45:03;70.73;;;64.47;;
18544;SDS011;9402;51.460;7.276;2022-08-19T11:47:05;63.50;;;58.07;;
18544;SDS011;9402;51.460;7.276;2022-08-19T11:49:08;69.27;;;63.40;;
18544;SDS011;9402;51.460;7.276;2022-08-19T11:51:11;63.67;;;58.53;;
18544;SDS011;9402;51.460;7.276;2022-08-19T11:53:15;72.13;;;66.23;;
18544;SDS011;9402;51.460;7.276;2022-08-19T11:55:18;72.60;;;66.63;;
18544;SDS011;9402;51.460;7.276;2022-08-19T11:57:20;62.33;;;57.33;;
18544;SDS011;9402;51.460;7.276;2022-08-19T11:59:24;68.23;;;62.90;;
18544;SDS011;9402;51.460;7.276;2022-08-19T12:01:27;68.03;;;62.77;;